Time;durP1;ratioP1;P1;durP2;ratioP2;P2;SDS_P1;SDS_P2;PMS_P1;PMS_P2;Temp;Humidity;BMP_temperature;BMP_pressure;BME280_temperature;BME280_humidity;BME280_pressure;Samples;Min_cycle;Max_cycle;Signal;HPM_P1;HPM_P2
2022/01/28 00:00:34;;;;;;;2.72;2.45;;;18.40;31.80;;;;;;5147303;27;46785;-21
2022/01/28 00:03:06;;;;;;;2.88;2.67;;;18.50;31.90;;;;;;5147230;27;46971;-22
2022/01/28 00:05:34;;;;;;;2.95;2.40;;;18.50;31.90;;;;;;5147596;27;47100;-21
2022/01/28 00:08:01;;;;;;;2.38;2.17;;;18.40;31.90;;;;;;5146979;27;48864;-21
2022/01/28 00:10:28;;;;;;;2.58;2.10;;;18.40;31.90;;;;;;5148998;27;47178;-22
2022/01/28 00:13:13;;;;;;;2.42;2.22;;;18.40;31.90;;;;;;5150542;27;46881;-21
2022/01/28 00:15:46;;;;;;;3.08;2.53;;;18.50;32.00;;;;;;5150881;27;46883;-21
2022/01/28 00:38:00;;;;;;;2.67;2.25;;;18.40;31.90;;;;;;5149405;27;47051;-22
2022/01/28 00:40:25;;;;;;;2.65;2.20;;;18.50;32.00;;;;;;5150035;27;48262;-22
2022/01/28 00:42:52;;;;;;;2.80;2.20;;;18.40;32.00;;;;;;5150290;27;46985;-22
2022/01/28 00:45:19;;;;;;;2.85;2.20;;;18.40;32.00;;;;;;5150515;27;46812;-21
2022/01/28 00:47:47;;;;;;;2.28;1.83;;;18.40;32.00;;;;;;5150327;27;47286;-21
2022/01/28 00:50:15;;;;;;;2.25;2.00;;;18.40;32.00;;;;;;5150186;27;48039;-22
2022/01/28 00:52:42;;;;;;;2.50;2.30;;;18.40;32.00;;;;;;5149710;27;46929;-21
2022/01/28 00:55:09;;;;;;;2.50;2.30;;;18.40;32.00;;;;;;5150127;27;46921;-21
2022/01/28 00:57:35;;;;;;;2.10;1.90;;;18.40;32.00;;;;;;5150262;27;47206;-21
2022/01/28 01:00:03;;;;;;;2.55;2.20;;;18.50;32.10;;;;;;5149953;27;48063;-20
2022/01/28 01:02:29;;;;;;;2.90;2.10;;;18.40;32.00;;;;;;5149697;27;46948;-20
2022/01/28 01:04:56;;;;;;;2.42;1.98;;;18.40;32.00;;;;;;5150048;27;46880;-22
2022/01/28 01:07:24;;;;;;;2.17;1.98;;;18.50;32.10;;;;;;5149746;27;47286;-21
2022/01/28 01:09:51;;;;;;;2.33;2.13;;;18.50;32.10;;;;;;5149825;27;49041;-21
2022/01/28 01:12:20;;;;;;;2.47;2.22;;;18.50;32.00;;;;;;5149503;27;47418;-21
2022/01/28 01:14:47;;;;;;;2.22;2.03;;;18.50;32.10;;;;;;5149900;27;46886;-15
2022/01/28 01:17:25;;;;;;;2.83;2.20;;;18.50;32.00;;;;;;5149803;27;47095;-16
2022/01/28 01:20:00;;;;;;;2.58;1.90;;;18.50;32.00;;;;;;5149900;27;47875;-15
2022/01/28 01:22:36;;;;;;;1.88;1.77;;;18.50;32.00;;;;;;5148583;27;46838;-15
2022/01/28 01:25:04;;;;;;;2.10;1.90;;;18.50;32.00;;;;;;5149792;27;46846;-16
2022/01/28 01:27:31;;;;;;;1.90;1.70;;;18.50;32.00;;;;;;5149441;27;47070;-15
2022/01/28 01:29:58;;;;;;;2.45;2.13;;;18.50;32.00;;;;;;5149164;27;47915;-17
2022/01/28 01:32:25;;;;;;;2.10;1.70;;;18.50;32.00;;;;;;5148887;27;47071;-15
2022/01/28 01:34:51;;;;;;;1.98;1.88;;;18.50;32.00;;;;;;5149339;27;46915;-21
2022/01/28 01:37:19;;;;;;;2.38;2.17;;;18.50;32.10;;;;;;5149573;27;47302;-21
2022/01/28 01:39:47;;;;;;;2.35;1.83;;;18.50;32.00;;;;;;5149336;27;48205;-22
2022/01/28 01:42:23;;;;;;;2.33;1.95;;;18.50;32.00;;;;;;5149254;27;46896;-21
2022/01/28 01:45:27;;;;;;;1.70;1.60;;;18.50;32.00;;;;;;5149560;27;46879;-21
2022/01/28 01:53:15;;;;;;;2.33;2.13;;;18.50;32.00;;;;;;5148990;27;47355;-22
2022/01/28 01:55:43;;;;;;;2.25;2.08;;;18.50;32.00;;;;;;5149180;27;46836;-21
2022/01/28 01:58:09;;;;;;;2.28;1.80;;;18.50;32.00;;;;;;5149201;27;46999;-21
2022/01/28 02:00:36;;;;;;;2.50;1.90;;;18.50;32.10;;;;;;5148743;27;47891;-21
2022/01/28 02:03:03;;;;;;;2.08;1.88;;;18.50;32.00;;;;;;5148484;27;46766;-21
2022/01/28 02:05:30;;;;;;;2.45;2.00;;;18.50;32.00;;;;;;5148793;27;46813;-21
2022/01/28 02:08:02;;;;;;;1.73;1.63;;;18.50;32.10;;;;;;5149103;27;47002;-21
2022/01/28 02:10:29;;;;;;;2.20;2.00;;;18.40;32.00;;;;;;5148614;27;48800;-21
2022/01/28 02:12:57;;;;;;;2.10;1.90;;;18.40;32.00;;;;;;5148941;27;47091;-21
2022/01/28 02:15:23;;;;;;;3.00;2.42;;;18.40;32.00;;;;;;5149002;27;46914;-21
2022/01/28 02:17:50;;;;;;;1.80;1.70;;;18.50;32.00;;;;;;5148941;27;47090;-21
2022/01/28 02:20:20;;;;;;;2.15;1.80;;;18.40;32.00;;;;;;5148440;27;48797;-21
2022/01/28 02:22:47;;;;;;;2.00;1.83;;;18.40;32.00;;;;;;5148429;27;46961;-21
2022/01/28 02:25:24;;;;;;;1.95;1.70;;;18.40;32.00;;;;;;5148797;27;46924;-21
2022/01/28 02:27:50;;;;;;;1.80;1.70;;;18.40;32.00;;;;;;5148731;27;47109;-21
2022/01/28 02:30:17;;;;;;;2.45;2.00;;;18.40;32.00;;;;;;5148265;27;47925;-21
2022/01/28 02:32:45;;;;;;;1.90;1.70;;;18.40;32.10;;;;;;5147507;27;46904;-21
2022/01/28 02:35:11;;;;;;;2.33;1.90;;;18.40;32.00;;;;;;5147958;27;46921;-21
2022/01/28 02:37:39;;;;;;;1.77;1.65;;;18.40;32.00;;;;;;5148722;27;47086;-21
2022/01/28 02:40:07;;;;;;;1.77;1.67;;;18.50;32.00;;;;;;5148098;27;48039;-21
2022/01/28 02:42:47;;;;;;;1.92;1.83;;;18.50;32.00;;;;;;5147823;27;46897;-21
2022/01/28 02:45:24;;;;;;;1.70;1.50;;;18.50;32.00;;;;;;5148467;27;46948;-21
2022/01/28 02:47:55;;;;;;;1.63;1.40;;;18.40;32.00;;;;;;5148608;27;46795;-22
2022/01/28 02:50:23;;;;;;;1.80;1.70;;;18.50;32.10;;;;;;5148324;27;48068;-21
2022/01/28 02:53:02;;;;;;;2.00;1.77;;;18.50;32.00;;;;;;5147734;27;46935;-20
2022/01/28 02:55:31;;;;;;;1.85;1.60;;;18.50;32.10;;;;;;5148116;27;46826;-21
2022/01/28 02:58:14;;;;;;;2.03;1.90;;;18.40;32.00;;;;;;5148175;27;46874;-15
2022/01/28 03:00:41;;;;;;;1.98;1.70;;;18.40;32.00;;;;;;5147874;27;49068;-15
2022/01/28 03:03:08;;;;;;;2.15;1.95;;;18.40;32.00;;;;;;5147748;27;47013;-21
2022/01/28 03:05:35;;;;;;;2.35;1.90;;;18.40;32.10;;;;;;5147810;27;46990;-20
2022/01/28 03:08:04;;;;;;;1.80;1.65;;;18.40;32.10;;;;;;5147860;27;46836;-21
2022/01/28 03:10:41;;;;;;;2.75;1.90;;;18.40;32.10;;;;;;5147971;27;48227;-20
2022/01/28 03:13:30;;;;;;;2.08;1.80;;;18.40;32.00;;;;;;5147754;27;46923;-21
2022/01/28 03:16:07;;;;;;;1.92;1.75;;;18.50;32.10;;;;;;5147765;27;46819;-20
2022/01/28 03:18:43;;;;;;;2.30;2.10;;;18.50;32.10;;;;;;5148148;27;46892;-21
2022/01/28 03:21:21;;;;;;;2.22;1.83;;;18.50;32.10;;;;;;5147789;27;47082;-21
2022/01/28 03:23:49;;;;;;;2.08;1.80;;;18.50;32.10;;;;;;5147415;27;46930;-20
2022/01/28 03:26:16;;;;;;;2.33;1.95;;;18.50;32.10;;;;;;5147535;27;46855;-22
2022/01/28 03:28:43;;;;;;;1.98;1.75;;;18.50;32.10;;;;;;5147687;27;46898;-21
2022/01/28 03:31:10;;;;;;;2.20;1.83;;;18.50;32.10;;;;;;5147197;27;48855;-21
2022/01/28 03:33:36;;;;;;;1.98;1.80;;;18.50;32.10;;;;;;5147666;27;46961;-21
2022/01/28 03:36:06;;;;;;;1.63;1.52;;;18.50;32.00;;;;;;5147794;27;46972;-21
2022/01/28 03:38:33;;;;;;;1.73;1.63;;;18.50;32.10;;;;;;5147873;27;46901;-20
2022/01/28 03:41:01;;;;;;;2.00;1.90;;;18.50;32.10;;;;;;5147535;27;49000;-21
2022/01/28 03:43:28;;;;;;;1.88;1.60;;;18.50;32.10;;;;;;5147463;27;47067;-21
2022/01/28 03:45:54;;;;;;;2.08;1.88;;;18.50;32.10;;;;;;5146852;27;46824;-21
2022/01/28 03:48:21;;;;;;;1.88;1.77;;;18.50;32.10;;;;;;5147694;27;47300;-21
2022/01/28 03:50:50;;;;;;;2.53;1.83;;;18.50;32.20;;;;;;5147330;27;48120;-21
2022/01/28 03:53:17;;;;;;;1.70;1.60;;;18.50;32.10;;;;;;5147268;27;47419;-21
2022/01/28 03:55:44;;;;;;;2.10;1.90;;;18.50;32.10;;;;;;5147123;27;46938;-22
2022/01/28 03:58:12;;;;;;;1.48;1.35;;;18.50;32.10;;;;;;5147458;27;46841;-21
2022/01/28 04:00:38;;;;;;;1.90;1.70;;;18.50;32.10;;;;;;5147231;27;49043;-21
2022/01/28 04:03:10;;;;;;;1.63;1.52;;;18.50;32.10;;;;;;5146765;27;46833;-21
2022/01/28 04:11:28;;;;;;;2.17;1.85;;;18.50;32.10;;;;;;5144069;27;47357;-22
2022/01/28 04:13:58;;;;;;;1.83;1.70;;;18.50;32.10;;;;;;5146940;27;46983;-21
2022/01/28 04:17:18;;;;;;;1.50;1.40;;;18.50;32.10;;;;;;5147352;27;46890;-22
2022/01/28 04:19:19;;;;;;;2.30;1.70;;;18.50;32.10;;;;;;5147122;27;47073;-22
2022/01/28 04:21:46;;;;;;;1.83;1.70;;;18.50;32.10;;;;;;5146872;27;47879;-21
2022/01/28 04:24:13;;;;;;;1.95;1.75;;;18.50;32.10;;;;;;5146626;27;47066;-21
2022/01/28 04:26:39;;;;;;;1.98;1.80;;;18.50;32.80;;;;;;5146796;27;46897;-22
2022/01/28 04:29:08;;;;;;;2.30;1.70;;;18.50;32.10;;;;;;5146876;27;47259;-21
2022/01/28 04:31:35;;;;;;;1.85;1.50;;;18.50;32.20;;;;;;5146516;27;47829;-21
2022/01/28 04:34:02;;;;;;;1.77;1.67;;;18.50;32.10;;;;;;5146901;27;46889;-22
2022/01/28 04:36:34;;;;;;;1.80;1.70;;;18.50;32.10;;;;;;5146634;27;46806;-22
2022/01/28 04:39:08;;;;;;;1.88;1.77;;;18.50;32.10;;;;;;5146936;27;47097;-22
2022/01/28 04:41:43;;;;;;;2.47;1.92;;;18.50;32.20;;;;;;5146645;27;48254;-21
2022/01/28 04:44:18;;;;;;;2.58;1.90;;;18.50;32.10;;;;;;5146445;27;46899;-21
2022/01/28 04:46:50;;;;;;;1.60;1.50;;;18.50;32.20;;;;;;5146589;27;46855;-22
2022/01/28 04:49:22;;;;;;;1.83;1.73;;;18.50;32.20;;;;;;5147120;27;47099;-21
2022/01/28 04:52:10;;;;;;;2.20;2.00;;;18.50;32.20;;;;;;5146034;27;48251;-22
2022/01/28 04:54:52;;;;;;;1.70;1.60;;;18.50;32.20;;;;;;5146332;27;47241;-15
2022/01/28 04:57:30;;;;;;;2.28;2.00;;;18.50;32.10;;;;;;5148063;27;46842;-15
2022/01/28 05:00:08;;;;;;;2.47;1.92;;;18.50;32.20;;;;;;5150481;27;47152;-15
2022/01/28 05:02:54;;;;;;;1.70;1.60;;;18.50;32.10;;;;;;5149706;27;48221;-16
2022/01/28 05:05:50;;;;;;;2.08;1.88;;;18.50;32.10;;;;;;5149692;27;46980;-15
2022/01/28 05:08:40;;;;;;;2.22;2.03;;;18.50;32.10;;;;;;5149878;27;46859;-15
2022/01/28 05:11:33;;;;;;;2.00;1.80;;;18.40;32.10;;;;;;5149838;27;47165;-16
2022/01/28 05:23:07;;;;;;;2.13;1.92;;;18.50;32.10;;;;;;5070580;27;46899;-15
2022/01/28 05:28:19;;;;;;;2.35;2.15;;;18.50;32.20;;;;;;5127304;27;46929;-15
2022/01/28 05:30:45;;;;;;;2.22;2.00;;;18.50;32.20;;;;;;5149667;27;46932;-16
2022/01/28 05:33:14;;;;;;;1.88;1.75;;;18.50;32.20;;;;;;5149208;27;46865;-16
2022/01/28 05:35:40;;;;;;;2.33;1.98;;;18.50;32.20;;;;;;5149319;27;46871;-16
2022/01/28 05:38:07;;;;;;;3.05;2.10;;;18.50;32.20;;;;;;5149191;27;47027;-16
2022/01/28 05:40:34;;;;;;;2.97;2.45;;;18.50;32.20;;;;;;5149614;27;47069;-16
2022/01/28 05:43:00;;;;;;;2.30;2.10;;;18.50;32.20;;;;;;5149403;27;47266;-15
2022/01/28 05:45:27;;;;;;;2.38;2.17;;;18.50;32.20;;;;;;5149359;27;47090;-16
2022/01/28 05:47:54;;;;;;;2.10;1.90;;;18.50;32.10;;;;;;5149013;27;47697;-15
2022/01/28 05:50:22;;;;;;;2.00;1.83;;;18.50;32.20;;;;;;5149400;27;46842;-16
2022/01/28 05:52:49;;;;;;;2.03;1.85;;;18.50;32.30;;;;;;5149484;27;46986;-15
2022/01/28 05:55:15;;;;;;;2.30;2.10;;;18.50;32.20;;;;;;5148840;27;48110;-16
2022/01/28 05:57:42;;;;;;;2.30;2.00;;;18.50;32.20;;;;;;5148671;27;46926;-15
2022/01/28 06:00:10;;;;;;;2.83;2.20;;;18.50;32.20;;;;;;5149101;27;46796;-15
2022/01/28 06:02:37;;;;;;;2.85;1.70;;;18.50;32.20;;;;;;5148754;27;46923;-16
2022/01/28 06:05:04;;;;;;;2.10;1.90;;;18.50;32.20;;;;;;5149076;27;49111;-16
2022/01/28 06:07:32;;;;;;;2.42;2.00;;;18.50;32.20;;;;;;5148483;27;46829;-16
2022/01/28 06:09:59;;;;;;;1.70;1.60;;;18.50;32.20;;;;;;5148995;27;46917;-20
2022/01/28 06:12:25;;;;;;;2.17;1.95;;;18.50;32.20;;;;;;5149091;27;46918;-21
2022/01/28 06:14:52;;;;;;;2.08;1.90;;;18.50;32.20;;;;;;5148481;27;49074;-21
2022/01/28 06:17:19;;;;;;;2.13;1.92;;;18.50;32.20;;;;;;5148684;27;47443;-21
2022/01/28 06:19:46;;;;;;;2.10;1.90;;;18.50;32.20;;;;;;5148841;27;46890;-22
2022/01/28 06:22:12;;;;;;;2.70;1.98;;;18.50;32.20;;;;;;5148546;27;47247;-22
2022/01/28 06:24:40;;;;;;;1.90;1.73;;;18.50;32.20;;;;;;5148634;27;48102;-21
2022/01/28 06:27:08;;;;;;;2.00;1.80;;;18.50;32.20;;;;;;5148392;27;46808;-22
2022/01/28 06:29:35;;;;;;;2.25;2.05;;;18.50;32.20;;;;;;5148642;27;46869;-21
2022/01/28 06:32:02;;;;;;;1.95;1.70;;;18.50;32.20;;;;;;5148263;27;47284;-22
2022/01/28 06:34:29;;;;;;;2.00;1.90;;;18.60;32.30;;;;;;5148468;27;49048;-21
2022/01/28 06:36:57;;;;;;;3.53;2.33;;;18.50;32.20;;;;;;5148266;27;47012;-21
2022/01/28 06:39:25;;;;;;;1.95;1.80;;;18.50;32.20;;;;;;5148378;27;46871;-21
2022/01/28 06:41:53;;;;;;;2.42;2.00;;;18.50;32.10;;;;;;5167607;27;47351;-22
2022/01/28 06:44:20;;;;;;;2.28;2.08;;;18.50;32.20;;;;;;5168361;27;48085;-21
2022/01/28 06:46:47;;;;;;;2.38;2.17;;;18.50;32.20;;;;;;5168515;27;47177;-21
2022/01/28 06:49:13;;;;;;;2.00;1.80;;;18.50;32.20;;;;;;5168142;27;46860;-22
2022/01/28 06:51:40;;;;;;;2.22;2.00;;;18.50;32.20;;;;;;5169478;27;47287;-22
2022/01/28 06:54:07;;;;;;;2.85;1.90;;;18.50;32.20;;;;;;5169107;27;47118;-21
2022/01/28 06:56:34;;;;;;;2.17;1.98;;;18.60;32.20;;;;;;5166795;27;46829;-22
2022/01/28 06:59:02;;;;;;;2.08;1.90;;;18.50;32.10;;;;;;5147696;27;46915;-20
2022/01/28 07:01:29;;;;;;;1.95;1.80;;;18.50;32.20;;;;;;5148069;27;46856;-21
2022/01/28 07:03:56;;;;;;;2.40;2.08;;;18.50;32.20;;;;;;5149011;27;48997;-22
2022/01/28 07:06:23;;;;;;;2.17;1.98;;;18.50;32.20;;;;;;5168673;27;46958;-22
2022/01/28 07:08:50;;;;;;;1.98;1.77;;;18.60;32.20;;;;;;5168753;27;46757;-21
2022/01/28 07:11:17;;;;;;;2.67;1.75;;;18.50;32.20;;;;;;5169074;27;47299;-21
2022/01/28 07:13:44;;;;;;;3.83;2.08;;;18.50;32.30;;;;;;5167225;27;48098;-21
2022/01/28 07:16:13;;;;;;;4.88;3.78;;;18.50;32.20;;;;;;5166919;27;46872;-22
2022/01/28 07:18:40;;;;;;;8.40;4.82;;;18.60;32.10;;;;;;5165409;27;46948;-22
2022/01/28 07:21:08;;;;;;;7.38;5.35;;;18.60;32.10;;;;;;5168280;27;47044;-17
2022/01/28 07:23:35;;;;;;;7.30;5.57;;;18.50;32.10;;;;;;5184155;27;48137;-16
2022/01/28 07:26:02;;;;;;;6.45;4.93;;;18.40;32.20;;;;;;5188389;27;47161;-15
2022/01/28 07:28:32;;;;;;;5.85;4.60;;;18.40;32.50;;;;;;5188845;27;46831;-18
2022/01/28 07:30:59;;;;;;;5.43;4.43;;;18.40;32.50;;;;;;5189173;27;47027;-17
2022/01/28 07:33:28;;;;;;;5.55;4.10;;;18.40;32.40;;;;;;5188260;27;47017;-16
2022/01/28 07:35:54;;;;;;;6.80;4.22;;;18.40;32.40;;;;;;5188077;27;47012;-16
2022/01/28 07:38:21;;;;;;;4.63;3.72;;;18.40;33.30;;;;;;5189403;27;46922;-16
2022/01/28 07:40:48;;;;;;;5.90;3.40;;;18.50;32.50;;;;;;5189895;27;46915;-17
2022/01/28 07:43:15;;;;;;;5.40;3.47;;;18.60;32.60;;;;;;5189304;27;48215;-16
2022/01/28 07:45:41;;;;;;;4.05;3.58;;;18.60;32.60;;;;;;5189081;27;46954;-17
2022/01/28 07:48:08;;;;;;;5.47;3.58;;;18.60;32.50;;;;;;5188545;27;46860;-16
2022/01/28 07:50:36;;;;;;;3.53;3.00;;;18.70;32.40;;;;;;5189696;27;47320;-22
2022/01/28 07:53:05;;;;;;;5.32;2.97;;;18.80;32.50;;;;;;5189086;27;47184;-26
2022/01/28 07:55:31;;;;;;;3.83;3.30;;;18.80;32.30;;;;;;5189143;27;47349;-21
2022/01/28 07:57:58;;;;;;;3.55;3.08;;;18.80;32.40;;;;;;5189175;27;46807;-22
2022/01/28 08:00:27;;;;;;;3.50;2.75;;;18.80;32.40;;;;;;5189879;27;47259;-21
2022/01/28 08:02:53;;;;;;;3.35;2.90;;;18.90;32.40;;;;;;5189088;27;48176;-16
2022/01/28 08:05:20;;;;;;;2.90;2.60;;;18.90;32.30;;;;;;5188978;27;46955;-16
2022/01/28 08:07:48;;;;;;;3.22;2.92;;;18.90;32.30;;;;;;5189084;27;46862;-16
2022/01/28 08:10:16;;;;;;;2.70;2.50;;;18.90;32.30;;;;;;5189496;27;46897;-16
2022/01/28 08:12:46;;;;;;;2.97;2.70;;;18.90;32.30;;;;;;5188777;27;49162;-16
2022/01/28 08:15:13;;;;;;;2.97;2.67;;;18.90;32.30;;;;;;5189006;27;47545;-17
2022/01/28 08:17:40;;;;;;;3.42;2.65;;;18.90;32.30;;;;;;5188708;27;47902;-16
2022/01/28 08:20:08;;;;;;;2.95;2.72;;;18.90;32.30;;;;;;5189456;27;47249;-16
2022/01/28 08:22:44;;;;;;;3.08;2.50;;;19.00;32.40;;;;;;5188872;27;47494;-16
2022/01/28 08:25:12;;;;;;;2.47;2.28;;;19.00;32.40;;;;;;5189089;27;46976;-15
2022/01/28 08:27:39;;;;;;;3.00;2.65;;;19.00;32.40;;;;;;5188602;27;46802;-15
2022/01/28 08:30:07;;;;;;;2.47;2.28;;;18.90;32.30;;;;;;5189017;27;46827;-16
2022/01/28 08:32:33;;;;;;;2.58;2.38;;;19.00;32.40;;;;;;5190481;27;47952;-16
2022/01/28 08:35:00;;;;;;;2.58;2.35;;;19.00;32.40;;;;;;5170739;27;46891;-17
2022/01/28 08:37:27;;;;;;;2.88;2.58;;;18.90;32.40;;;;;;5171817;27;47033;-22
2022/01/28 08:39:54;;;;;;;3.72;2.47;;;19.00;32.50;;;;;;5171576;27;46879;-21
2022/01/28 08:42:22;;;;;;;2.45;2.25;;;19.00;32.50;;;;;;5170940;27;47945;-20
2022/01/28 08:44:48;;;;;;;2.83;2.35;;;19.00;32.60;;;;;;5171319;27;46921;-20
2022/01/28 08:47:15;;;;;;;3.13;2.50;;;18.90;32.60;;;;;;5171297;27;46921;-20
2022/01/28 08:49:42;;;;;;;2.53;2.33;;;18.90;32.50;;;;;;5171484;27;47291;-20
2022/01/28 08:52:08;;;;;;;3.45;2.58;;;18.90;32.60;;;;;;5170822;27;47379;-20
2022/01/28 08:54:35;;;;;;;3.00;2.40;;;18.90;32.60;;;;;;5171169;27;47659;-20
2022/01/28 08:57:02;;;;;;;2.75;2.55;;;18.90;32.60;;;;;;5170687;27;46820;-21
2022/01/28 08:59:30;;;;;;;2.30;2.08;;;18.90;32.60;;;;;;5171365;27;46905;-21
2022/01/28 09:01:57;;;;;;;2.45;2.10;;;18.90;32.70;;;;;;5170489;27;48897;-20
2022/01/28 09:04:23;;;;;;;2.35;2.10;;;18.90;32.60;;;;;;5170435;27;47389;-21
2022/01/28 09:06:50;;;;;;;1.95;1.85;;;18.90;32.70;;;;;;5170659;27;46949;-21
2022/01/28 09:09:18;;;;;;;2.97;2.30;;;18.90;32.70;;;;;;5170808;27;46893;-20
2022/01/28 09:11:52;;;;;;;2.45;2.25;;;18.90;32.70;;;;;;5170530;27;48233;-21
2022/01/28 09:14:20;;;;;;;2.58;2.38;;;18.90;32.70;;;;;;5170968;27;46997;-20
2022/01/28 09:16:48;;;;;;;2.80;2.28;;;18.90;32.70;;;;;;5170591;27;46826;-21
2022/01/28 09:19:15;;;;;;;2.25;2.00;;;18.90;32.70;;;;;;5171229;27;47256;-20
2022/01/28 09:21:41;;;;;;;2.67;2.47;;;18.90;32.70;;;;;;5170245;27;48728;-20
2022/01/28 09:24:11;;;;;;;2.20;2.00;;;18.80;32.70;;;;;;5170582;27;46860;-20
2022/01/28 09:26:39;;;;;;;2.75;2.13;;;18.90;32.80;;;;;;5170439;27;46922;-15
2022/01/28 09:29:06;;;;;;;2.40;2.20;;;18.90;32.50;;;;;;5170143;27;47114;-16
2022/01/28 09:31:32;;;;;;;2.25;2.05;;;18.80;32.70;;;;;;5164004;27;46804;-16
2022/01/28 09:34:00;;;;;;;2.00;1.83;;;18.90;32.70;;;;;;5149543;27;46892;-15
2022/01/28 09:36:27;;;;;;;2.10;1.90;;;18.90;32.80;;;;;;5148730;27;47094;-16
2022/01/28 09:38:54;;;;;;;2.42;2.13;;;18.90;32.80;;;;;;5149774;27;47006;-15
2022/01/28 09:41:22;;;;;;;2.10;1.90;;;18.80;32.80;;;;;;5148789;27;47833;-15
2022/01/28 09:43:49;;;;;;;2.30;2.10;;;18.80;32.70;;;;;;5149079;27;46841;-15
2022/01/28 09:46:17;;;;;;;2.00;1.85;;;18.90;32.70;;;;;;5149519;27;46896;-15
2022/01/28 09:48:48;;;;;;;2.25;2.00;;;18.80;32.80;;;;;;5149208;27;46944;-16
2022/01/28 09:51:17;;;;;;;2.15;1.95;;;18.80;32.50;;;;;;5149038;27;48012;-17
2022/01/28 09:53:44;;;;;;;2.40;2.20;;;18.90;32.70;;;;;;5148659;27;46976;-15
2022/01/28 09:56:10;;;;;;;1.95;1.85;;;18.90;32.80;;;;;;5149120;27;46839;-15
2022/01/28 09:58:37;;;;;;;2.50;2.30;;;18.80;32.70;;;;;;5148825;27;47192;-14
2022/01/28 10:01:04;;;;;;;2.75;1.98;;;18.90;32.90;;;;;;5148444;27;48158;-14
2022/01/28 10:03:31;;;;;;;2.25;2.00;;;18.90;32.80;;;;;;5149061;27;47251;-15
2022/01/28 10:05:58;;;;;;;2.03;1.83;;;18.90;32.90;;;;;;5148825;27;47077;-15
2022/01/28 10:08:27;;;;;;;2.38;2.00;;;18.90;32.60;;;;;;5148589;27;47109;-14
2022/01/28 10:10:58;;;;;;;1.83;1.70;;;18.90;32.70;;;;;;5148131;27;48121;-15
2022/01/28 10:13:30;;;;;;;1.90;1.80;;;19.00;32.80;;;;;;5148884;27;46927;-17
2022/01/28 10:16:11;;;;;;;1.80;1.70;;;19.00;32.80;;;;;;5148162;27;47074;-15
2022/01/28 10:18:46;;;;;;;2.30;2.08;;;19.00;32.80;;;;;;5148724;27;46833;-15
2022/01/28 10:21:27;;;;;;;4.68;3.75;;;18.90;32.70;;;;;;5148486;27;48055;-14
2022/01/28 10:24:04;;;;;;;6.03;4.35;;;19.00;33.00;;;;;;5148921;27;47004;-15
2022/01/28 10:26:32;;;;;;;5.78;4.47;;;18.90;33.20;;;;;;5148207;27;46885;-15
2022/01/28 10:28:59;;;;;;;4.30;3.90;;;18.80;33.20;;;;;;5148968;27;46963;-20
2022/01/28 10:31:52;;;;;;;6.72;5.00;;;18.80;33.40;;;;;;5149600;27;48161;-20
2022/01/28 10:34:26;;;;;;;5.28;4.32;;;18.70;33.40;;;;;;5147914;27;46956;-21
2022/01/28 10:37:07;;;;;;;7.28;4.43;;;18.70;33.50;;;;;;5148286;27;46884;-21
2022/01/28 10:39:40;;;;;;;5.00;4.20;;;18.60;33.50;;;;;;5148552;27;47231;-20
2022/01/28 10:42:08;;;;;;;4.88;4.10;;;18.60;33.40;;;;;;5148245;27;46937;-20
2022/01/28 10:44:35;;;;;;;5.70;4.30;;;18.60;33.70;;;;;;5147159;27;47022;-21
2022/01/28 10:47:06;;;;;;;5.00;4.18;;;18.60;33.80;;;;;;5147827;27;46987;-21
2022/01/28 10:49:34;;;;;;;4.78;4.20;;;18.60;34.10;;;;;;5148656;27;46817;-21
2022/01/28 10:52:06;;;;;;;5.63;4.40;;;18.60;34.00;;;;;;5148078;27;47946;-20
2022/01/28 10:54:35;;;;;;;6.32;4.30;;;18.50;34.10;;;;;;5146880;27;47093;-21
2022/01/28 10:57:04;;;;;;;5.57;4.45;;;18.50;34.20;;;;;;5147993;27;47112;-20
2022/01/28 10:59:32;;;;;;;5.90;4.50;;;18.40;34.20;;;;;;5148121;27;46965;-20
2022/01/28 11:01:58;;;;;;;5.97;4.35;;;18.40;34.20;;;;;;5147824;27;48851;-20
2022/01/28 11:04:25;;;;;;;5.68;4.45;;;18.40;34.30;;;;;;5147951;27;47004;-21
2022/01/28 11:06:54;;;;;;;8.77;4.40;;;18.40;34.30;;;;;;5147630;27;46930;-20
2022/01/28 11:09:21;;;;;;;4.88;3.67;;;18.40;34.30;;;;;;5147713;27;46917;-20
2022/01/28 11:11:48;;;;;;;3.70;3.40;;;18.50;34.30;;;;;;5145635;27;47120;-20
2022/01/28 11:14:16;;;;;;;3.95;3.35;;;18.60;34.20;;;;;;5146591;27;47170;-21
2022/01/28 11:16:42;;;;;;;3.85;3.40;;;18.70;34.10;;;;;;5147485;27;46978;-20
2022/01/28 11:19:10;;;;;;;3.88;3.45;;;18.80;34.00;;;;;;5147757;27;46923;-20
2022/01/28 11:21:48;;;;;;;3.50;3.15;;;18.80;33.90;;;;;;5147326;27;47935;-20
2022/01/28 11:24:19;;;;;;;3.75;2.88;;;18.90;33.80;;;;;;5147643;27;47267;-20
2022/01/28 11:26:50;;;;;;;3.17;2.75;;;19.00;33.70;;;;;;5147180;27;47014;-20
2022/01/28 11:29:24;;;;;;;2.60;2.40;;;19.00;33.60;;;;;;5146719;27;46960;-20
2022/01/28 11:31:51;;;;;;;3.70;3.05;;;19.10;33.60;;;;;;5147011;27;46799;-20
2022/01/28 11:34:19;;;;;;;3.38;2.80;;;19.10;33.60;;;;;;5147532;27;47290;-20
2022/01/28 11:36:46;;;;;;;2.95;2.65;;;19.20;33.60;;;;;;5147972;27;46898;-21
2022/01/28 11:39:29;;;;;;;4.80;3.20;;;19.20;33.50;;;;;;5147469;27;46960;-20
2022/01/28 11:42:07;;;;;;;4.50;3.15;;;19.20;33.50;;;;;;5146354;27;48766;-20
2022/01/28 11:44:45;;;;;;;3.45;2.88;;;19.30;33.50;;;;;;5147098;27;47081;-21
2022/01/28 11:47:20;;;;;;;3.80;3.00;;;19.30;33.50;;;;;;5147300;27;46825;-21
2022/01/28 11:49:57;;;;;;;5.88;2.92;;;19.30;33.50;;;;;;5147586;27;46937;-20
2022/01/28 11:52:25;;;;;;;3.67;3.10;;;19.30;33.40;;;;;;5147093;27;48005;-20
2022/01/28 11:54:53;;;;;;;3.47;2.83;;;19.40;33.50;;;;;;5147171;27;47047;-21
2022/01/28 11:57:21;;;;;;;5.30;3.00;;;19.40;33.50;;;;;;5146974;27;46933;-21
2022/01/28 11:59:50;;;;;;;4.57;3.28;;;19.40;33.40;;;;;;5147223;27;47373;-20
2022/01/28 12:02:18;;;;;;;4.22;3.58;;;19.40;33.40;;;;;;5147122;27;48853;-21
2022/01/28 12:04:45;;;;;;;4.00;3.60;;;19.40;33.30;;;;;;5146846;27;46898;-21
2022/01/28 12:07:14;;;;;;;5.07;3.38;;;19.40;33.30;;;;;;5150141;27;46791;-20
2022/01/28 12:09:42;;;;;;;7.30;3.08;;;19.50;33.40;;;;;;5151108;27;46817;-20
2022/01/28 12:12:11;;;;;;;5.35;3.40;;;19.60;33.20;;;;;;5150213;27;48217;-21
2022/01/28 12:14:58;;;;;;;6.25;3.60;;;19.60;33.10;;;;;;5150547;27;46929;-21
2022/01/28 12:17:45;;;;;;;4.15;3.75;;;19.70;33.10;;;;;;5150350;27;47070;-20
2022/01/28 12:20:38;;;;;;;5.40;3.63;;;19.70;33.00;;;;;;5151105;27;46831;-20
2022/01/28 12:23:21;;;;;;;5.03;3.38;;;19.90;32.90;;;;;;5150248;27;46851;-20
2022/01/28 12:25:51;;;;;;;3.55;3.25;;;19.90;32.40;;;;;;5149652;27;46854;-21
2022/01/28 12:28:19;;;;;;;4.30;3.60;;;20.00;32.50;;;;;;5150408;27;46930;-21
2022/01/28 12:30:48;;;;;;;4.30;3.75;;;20.10;32.50;;;;;;5150943;27;46918;-16
2022/01/28 12:33:14;;;;;;;6.38;3.80;;;20.10;32.30;;;;;;5150115;27;47958;-15
2022/01/28 12:35:42;;;;;;;4.13;3.72;;;20.20;32.30;;;;;;5150260;27;46908;-16
2022/01/28 12:38:09;;;;;;;4.03;3.25;;;20.20;32.20;;;;;;5149955;27;46889;-15
2022/01/28 12:40:36;;;;;;;4.90;3.58;;;20.20;32.10;;;;;;5150244;27;47361;-14
2022/01/28 12:43:04;;;;;;;4.97;3.70;;;20.30;32.20;;;;;;5149042;27;48008;-15
2022/01/28 12:45:30;;;;;;;5.40;4.05;;;20.30;32.10;;;;;;5152443;27;47579;-15
2022/01/28 12:47:59;;;;;;;5.13;4.18;;;20.30;32.10;;;;;;5171312;27;47131;-14
2022/01/28 12:50:25;;;;;;;5.20;4.00;;;20.30;32.10;;;;;;5171386;27;46934;-16
2022/01/28 12:52:52;;;;;;;4.43;3.58;;;20.30;32.90;;;;;;5171001;27;49294;-14
2022/01/28 12:55:19;;;;;;;4.05;3.63;;;20.20;32.20;;;;;;5170856;27;46801;-16
2022/01/28 12:57:46;;;;;;;4.03;3.35;;;20.20;32.30;;;;;;5170967;27;46993;-18
2022/01/28 13:00:14;;;;;;;4.00;3.20;;;20.20;32.40;;;;;;5171540;27;47038;-16
2022/01/28 13:02:41;;;;;;;5.10;3.30;;;20.30;32.40;;;;;;5170815;27;47874;-16
2022/01/28 13:05:15;;;;;;;6.93;3.25;;;20.20;32.40;;;;;;5170328;27;47209;-16
2022/01/28 13:10:28;;;;;;;7.32;3.58;;;20.30;32.40;;;;;;5167672;27;47148;-15
2022/01/28 13:13:03;;;;;;;5.18;3.17;;;20.20;32.40;;;;;;5170541;27;46904;-15
2022/01/28 13:15:29;;;;;;;4.05;3.10;;;20.20;32.50;;;;;;5170637;27;46882;-15
2022/01/28 13:17:57;;;;;;;4.50;3.03;;;20.20;32.50;;;;;;5169881;27;46753;-16
2022/01/28 13:20:32;;;;;;;3.90;3.45;;;20.20;32.50;;;;;;5171026;27;46976;-15
2022/01/28 13:22:59;;;;;;;3.70;3.30;;;20.20;32.60;;;;;;5170463;27;47906;-15
2022/01/28 13:25:28;;;;;;;3.38;2.97;;;20.30;32.60;;;;;;5170378;27;46885;-16
2022/01/28 13:27:58;;;;;;;5.07;2.88;;;20.20;32.50;;;;;;5170140;27;46937;-16
2022/01/28 13:30:25;;;;;;;3.92;3.30;;;20.10;32.60;;;;;;5170952;27;46924;-15
2022/01/28 13:32:53;;;;;;;5.65;3.33;;;20.00;32.90;;;;;;5169914;27;47957;-15
2022/01/28 13:35:21;;;;;;;4.03;3.13;;;19.90;32.80;;;;;;5170462;27;47017;-15
2022/01/28 13:37:55;;;;;;;3.55;2.85;;;19.80;33.10;;;;;;5170125;27;46897;-16
2022/01/28 13:40:34;;;;;;;4.38;2.92;;;19.80;33.10;;;;;;5170606;27;46954;-16
2022/01/28 13:43:02;;;;;;;3.17;2.88;;;19.70;33.90;;;;;;5169259;27;48857;-15
2022/01/28 13:45:30;;;;;;;3.47;2.53;;;19.70;33.40;;;;;;5169989;27;46811;-16